createdAt,value
2017-02-12T00:01:06.398Z,0
2017-02-12T00:02:17.171Z,0
2017-02-12T00:03:27.550Z,0
2017-02-12T00:04:37.916Z,0
2017-02-12T00:05:48.346Z,0
2017-02-12T00:06:58.291Z,0
2017-02-12T00:08:09.037Z,0
2017-02-12T00:09:19.388Z,0
2017-02-12T00:10:30.144Z,0
2017-02-12T00:11:40.893Z,0
2017-02-12T00:12:51.262Z,0
2017-02-12T00:14:02.010Z,0
2017-02-12T00:15:12.355Z,0
2017-02-12T00:16:23.098Z,0
2017-02-12T00:17:33.895Z,0
2017-02-12T00:18:44.629Z,0
2017-02-12T00:19:54.613Z,0
2017-02-12T00:21:04.982Z,0
2017-02-12T00:22:15.340Z,0
2017-02-12T00:23:25.317Z,0
2017-02-12T00:24:35.703Z,0
2017-02-12T00:25:46.048Z,0
2017-02-12T00:26:56.436Z,0
2017-02-12T00:28:07.189Z,0
2017-02-12T00:29:17.613Z,0
2017-02-12T00:30:27.971Z,0
2017-02-12T00:31:38.720Z,0
2017-02-12T00:32:49.463Z,0
2017-02-12T00:34:00.240Z,0
2017-02-12T00:35:10.983Z,0
2017-02-12T00:36:21.758Z,0
2017-02-12T00:37:32.114Z,0
2017-02-12T00:38:42.462Z,0
2017-02-12T00:39:52.816Z,0
2017-02-12T00:41:03.157Z,0
2017-02-12T00:42:13.937Z,0
2017-02-12T00:43:24.689Z,0
2017-02-12T00:44:35.449Z,0
2017-02-12T00:45:46.194Z,0
2017-02-12T00:46:57.002Z,0
2017-02-12T00:48:07.398Z,0
2017-02-12T00:49:17.778Z,0
2017-02-12T00:50:28.127Z,0
2017-02-12T00:51:38.891Z,0
2017-02-12T00:52:49.679Z,0
2017-02-12T00:54:00.041Z,0
2017-02-12T00:55:10.830Z,0
2017-02-12T00:56:21.172Z,0
2017-02-12T00:57:31.135Z,0
2017-02-12T00:58:41.506Z,0
2017-02-12T00:59:52.312Z,0
2017-02-12T01:01:03.055Z,0
2017-02-12T01:02:13.401Z,0
2017-02-12T01:03:23.749Z,0
2017-02-12T01:04:34.543Z,0
2017-02-12T01:05:44.896Z,0
2017-02-12T01:06:55.633Z,0
2017-02-12T01:08:06.374Z,0
2017-02-12T01:09:17.120Z,0
2017-02-12T01:10:27.871Z,0
2017-02-12T01:11:38.220Z,0
2017-02-12T01:12:48.580Z,0
2017-02-12T01:13:58.915Z,0
2017-02-12T01:15:09.272Z,0
2017-02-12T01:16:20.026Z,0
2017-02-12T01:17:30.786Z,0
2017-02-12T01:18:40.362Z,0
2017-02-12T01:19:50.714Z,0
2017-02-12T01:21:01.464Z,0
2017-02-12T01:22:12.205Z,0
2017-02-12T01:23:22.949Z,0
2017-02-12T01:24:33.697Z,0
2017-02-12T01:25:44.436Z,0
2017-02-12T01:26:55.192Z,0
2017-02-12T01:28:05.937Z,0
2017-02-12T01:29:15.886Z,0
2017-02-12T01:30:25.843Z,0
2017-02-12T01:31:35.805Z,0
2017-02-12T01:32:46.551Z,0
2017-02-12T01:33:56.503Z,0
2017-02-12T01:35:06.853Z,0
2017-02-12T01:36:17.597Z,0
2017-02-12T01:37:26.779Z,0
2017-02-12T01:38:37.521Z,0
2017-02-12T01:39:47.975Z,0
2017-02-12T01:40:57.935Z,0
2017-02-12T01:42:08.279Z,0
2017-02-12T01:43:19.018Z,0
2017-02-12T01:44:29.758Z,0
2017-02-12T01:45:39.703Z,0
2017-02-12T01:46:50.083Z,0
2017-02-12T01:48:00.833Z,0
2017-02-12T01:49:10.780Z,0
2017-02-12T01:50:21.128Z,0
2017-02-12T01:51:31.878Z,0
2017-02-12T01:52:41.839Z,0
2017-02-12T01:53:52.184Z,0
2017-02-12T01:55:02.941Z,0
2017-02-12T01:56:13.305Z,0
2017-02-12T01:57:24.061Z,0
2017-02-12T01:58:34.809Z,0
2017-02-12T01:59:45.555Z,0
2017-02-12T02:00:55.904Z,0
2017-02-12T02:02:06.259Z,0
2017-02-12T02:03:16.216Z,0
2017-02-12T02:04:26.555Z,0
2017-02-12T02:05:36.890Z,0
2017-02-12T02:06:46.446Z,0
2017-02-12T02:07:56.403Z,0
2017-02-12T02:09:06.372Z,0
2017-02-12T02:10:17.106Z,0
2017-02-12T02:11:27.458Z,0
2017-02-12T02:12:37.808Z,0
2017-02-12T02:13:48.552Z,0
2017-02-12T02:14:59.293Z,0
2017-02-12T02:16:10.047Z,0
2017-02-12T02:17:20.403Z,0
2017-02-12T02:18:30.358Z,0
2017-02-12T02:19:40.305Z,0
2017-02-12T02:20:51.041Z,0
2017-02-12T02:22:01.402Z,0
2017-02-12T02:23:12.145Z,0
2017-02-12T02:24:22.101Z,0
2017-02-12T02:25:32.836Z,0
2017-02-12T02:26:43.622Z,0
2017-02-12T02:27:54.373Z,0
2017-02-12T02:29:04.729Z,0
2017-02-12T02:30:14.788Z,0
2017-02-12T02:31:25.538Z,0
2017-02-12T02:32:36.291Z,0
2017-02-12T02:33:46.254Z,0
2017-02-12T02:34:56.987Z,0
2017-02-12T02:36:06.546Z,0
2017-02-12T02:37:16.910Z,0
2017-02-12T02:38:27.687Z,0
2017-02-12T02:39:38.440Z,0
2017-02-12T02:40:48.805Z,0
2017-02-12T02:41:59.144Z,0
2017-02-12T02:43:09.885Z,0
2017-02-12T02:44:20.632Z,0
2017-02-12T02:45:30.988Z,0
2017-02-12T02:46:41.335Z,0
2017-02-12T02:47:51.676Z,0
2017-02-12T02:49:01.645Z,0
2017-02-12T02:50:11.896Z,0
2017-02-12T02:51:22.679Z,0
2017-02-12T02:52:33.425Z,0
2017-02-12T02:53:44.171Z,0
2017-02-12T02:54:54.537Z,0
2017-02-12T02:56:04.889Z,0
2017-02-12T02:57:15.626Z,0
2017-02-12T02:58:25.597Z,0
2017-02-12T02:59:35.562Z,0
2017-02-12T03:00:46.352Z,0
2017-02-12T03:33:15.650Z,0
2017-02-12T03:34:25.985Z,0
2017-02-12T03:35:36.716Z,0
2017-02-12T03:36:46.649Z,0
2017-02-12T03:37:57.005Z,0
2017-02-12T03:39:07.348Z,0
2017-02-12T03:40:17.703Z,0
2017-02-12T03:41:28.441Z,0
2017-02-12T03:42:38.775Z,0
2017-02-12T03:43:48.733Z,0
2017-02-12T03:44:59.491Z,0
2017-02-12T03:46:10.236Z,0
2017-02-12T03:47:20.191Z,0
2017-02-12T03:48:30.541Z,0
2017-02-12T03:49:40.888Z,0
2017-02-12T03:50:51.632Z,0
2017-02-12T03:52:01.978Z,0
2017-02-12T03:53:12.727Z,0
2017-02-12T03:54:23.077Z,0
2017-02-12T03:55:33.828Z,0
2017-02-12T03:56:44.563Z,0
2017-02-12T03:57:55.310Z,0
2017-02-12T03:59:05.662Z,0
2017-02-12T04:00:15.615Z,0
2017-02-12T04:01:25.192Z,0
2017-02-12T04:02:35.740Z,0
2017-02-12T04:03:46.492Z,0
2017-02-12T04:04:57.230Z,0
2017-02-12T04:06:07.582Z,0
2017-02-12T04:07:18.327Z,0
2017-02-12T04:08:28.738Z,0
2017-02-12T04:09:39.472Z,0
2017-02-12T04:10:49.833Z,0
2017-02-12T04:12:00.574Z,0
2017-02-12T04:13:11.361Z,0
2017-02-12T04:14:22.145Z,0
2017-02-12T04:15:32.105Z,0
2017-02-12T04:16:42.849Z,0
2017-02-12T04:17:53.210Z,0
2017-02-12T04:19:03.560Z,0
2017-02-12T04:20:14.306Z,0
2017-02-12T04:21:24.899Z,0
2017-02-12T04:22:35.252Z,0
2017-02-12T04:23:46.013Z,0
2017-02-12T04:24:56.376Z,0
2017-02-12T04:26:06.797Z,0
2017-02-12T04:27:17.153Z,0
2017-02-12T04:28:27.507Z,0
2017-02-12T04:29:37.475Z,0
2017-02-12T04:30:48.228Z,0
2017-02-12T04:31:58.966Z,0
2017-02-12T04:33:09.311Z,0
2017-02-12T04:34:20.058Z,0
2017-02-12T04:35:30.415Z,0
2017-02-12T04:36:41.166Z,0
2017-02-12T04:37:50.323Z,0
2017-02-12T04:39:00.295Z,0
2017-02-12T04:40:10.242Z,0
2017-02-12T04:41:20.994Z,0
2017-02-12T04:42:31.751Z,0
2017-02-12T04:43:42.491Z,0
2017-02-12T04:44:53.244Z,0
2017-02-12T04:46:04.033Z,0
2017-02-12T04:47:14.391Z,0
2017-02-12T04:48:25.139Z,0
2017-02-12T04:49:35.879Z,0
2017-02-12T04:50:46.648Z,0
2017-02-12T04:51:56.601Z,0
2017-02-12T04:53:06.951Z,0
2017-02-12T04:54:17.682Z,0
2017-02-12T04:55:27.254Z,0
2017-02-12T04:56:38.001Z,0
2017-02-12T04:57:48.338Z,0
2017-02-12T04:58:57.907Z,0
2017-02-12T05:00:07.872Z,0
2017-02-12T05:01:17.824Z,0
2017-02-12T05:02:28.164Z,0
2017-02-12T05:03:38.112Z,0
2017-02-12T05:04:48.447Z,0
2017-02-12T05:05:59.179Z,0
2017-02-12T05:07:09.587Z,0
2017-02-12T05:08:19.928Z,0
2017-02-12T05:09:30.670Z,0
2017-02-12T05:10:41.030Z,0
2017-02-12T05:11:51.392Z,0
2017-02-12T05:13:02.134Z,0
2017-02-12T05:14:12.494Z,0
2017-02-12T05:15:22.854Z,0
2017-02-12T05:16:33.198Z,0
2017-02-12T05:17:43.945Z,0
2017-02-12T05:18:53.904Z,0
2017-02-12T05:20:03.868Z,0
2017-02-12T05:21:14.237Z,0
2017-02-12T05:22:24.970Z,0
2017-02-12T05:23:35.710Z,0
2017-02-12T05:24:46.512Z,0
2017-02-12T05:25:56.863Z,0
2017-02-12T05:27:07.218Z,0
2017-02-12T05:28:17.567Z,0
2017-02-12T05:29:27.911Z,0
2017-02-12T05:30:38.259Z,0
2017-02-12T05:31:49.011Z,0
2017-02-12T05:32:58.994Z,0
2017-02-12T05:34:09.751Z,0
2017-02-12T05:35:20.503Z,0
2017-02-12T05:36:30.853Z,0
2017-02-12T05:37:41.596Z,4
2017-02-12T05:38:51.943Z,4
2017-02-12T05:40:02.306Z,4
2017-02-12T05:41:12.315Z,0
2017-02-12T05:42:23.072Z,0
2017-02-12T05:43:33.406Z,0
2017-02-12T05:44:43.754Z,4
2017-02-12T05:45:53.322Z,4
2017-02-12T05:47:03.670Z,4
2017-02-12T05:48:14.452Z,8
2017-02-12T05:49:24.794Z,4
2017-02-12T05:50:35.541Z,4
2017-02-12T05:51:45.892Z,4
2017-02-12T05:52:56.231Z,8
2017-02-12T05:54:06.571Z,8
2017-02-12T05:55:16.915Z,12
2017-02-12T05:56:27.281Z,12
2017-02-12T05:57:38.026Z,16
2017-02-12T05:58:48.778Z,16
2017-02-12T05:59:59.562Z,24
2017-02-12T06:01:09.910Z,24
2017-02-12T06:02:20.259Z,28
2017-02-12T06:03:31.004Z,32
2017-02-12T06:04:41.360Z,36
2017-02-12T06:05:51.724Z,40
2017-02-12T06:07:01.709Z,48
2017-02-12T06:08:12.460Z,52
2017-02-12T06:09:23.194Z,60
2017-02-12T06:10:33.539Z,68
2017-02-12T06:11:43.931Z,72
2017-02-12T06:12:54.262Z,80
2017-02-12T06:14:04.614Z,84
2017-02-12T06:15:15.355Z,92
2017-02-12T06:16:25.916Z,104
2017-02-12T06:17:35.869Z,116
2017-02-12T06:18:45.831Z,136
2017-02-12T06:19:56.178Z,148
2017-02-12T06:21:06.132Z,164
2017-02-12T06:22:16.488Z,180
2017-02-12T06:23:27.233Z,196
2017-02-12T06:24:37.588Z,208
2017-02-12T06:25:48.341Z,224
2017-02-12T06:26:58.698Z,236
2017-02-12T06:28:09.679Z,252
2017-02-12T06:29:19.620Z,264
2017-02-12T06:30:29.955Z,276
2017-02-12T06:31:39.942Z,292
2017-02-12T06:32:50.291Z,304
2017-02-12T06:34:01.027Z,316
2017-02-12T06:35:11.795Z,332
2017-02-12T06:36:22.551Z,344
2017-02-12T06:37:33.297Z,368
2017-02-12T06:38:44.039Z,380
2017-02-12T06:39:54.387Z,396
2017-02-12T06:41:05.161Z,404
2017-02-12T06:42:15.891Z,396
2017-02-12T06:43:26.237Z,416
2017-02-12T06:44:36.586Z,448
2017-02-12T06:45:46.931Z,484
2017-02-12T06:46:57.290Z,504
2017-02-12T06:48:07.645Z,520
2017-02-12T06:49:18.048Z,548
2017-02-12T06:50:28.792Z,584
2017-02-12T06:51:39.548Z,624
2017-02-12T06:52:50.337Z,648
2017-02-12T06:54:00.300Z,664
2017-02-12T06:55:10.268Z,672
2017-02-12T06:56:20.615Z,676
2017-02-12T06:57:31.367Z,692
2017-02-12T06:58:41.720Z,716
2017-02-12T06:59:52.459Z,732
2017-02-12T07:01:02.814Z,748
2017-02-12T07:02:13.549Z,772
2017-02-12T07:03:24.297Z,796
2017-02-12T07:04:35.040Z,812
2017-02-12T07:05:45.782Z,832
2017-02-12T07:06:56.341Z,864
2017-02-12T07:08:07.092Z,892
2017-02-12T07:09:17.446Z,916
2017-02-12T07:10:28.201Z,936
2017-02-12T07:11:37.762Z,960
2017-02-12T07:12:48.505Z,988
2017-02-12T07:13:59.277Z,1020
2017-02-12T07:15:10.013Z,1052
2017-02-12T07:16:19.955Z,1096
2017-02-12T07:17:30.321Z,1128
2017-02-12T07:18:40.674Z,1152
2017-02-12T07:19:51.418Z,1168
2017-02-12T07:21:02.158Z,1176
2017-02-12T07:22:12.499Z,1212
2017-02-12T07:23:22.845Z,1248
2017-02-12T07:24:33.196Z,1284
2017-02-12T07:25:43.925Z,1312
2017-02-12T07:26:54.663Z,1344
2017-02-12T07:28:04.619Z,1364
2017-02-12T07:29:14.974Z,1412
2017-02-12T07:30:25.720Z,1440
2017-02-12T07:31:36.484Z,1416
2017-02-12T07:32:47.223Z,1400
2017-02-12T07:33:58.013Z,1396
2017-02-12T07:35:08.752Z,1412
2017-02-12T07:36:19.125Z,1448
2017-02-12T07:37:29.876Z,1468
2017-02-12T07:38:39.435Z,1472
2017-02-12T07:39:49.790Z,1492
2017-02-12T07:41:00.548Z,1524
2017-02-12T07:42:10.929Z,1556
2017-02-12T07:43:21.764Z,1580
2017-02-12T07:44:32.512Z,1628
2017-02-12T07:45:43.262Z,1692
2017-02-12T07:46:53.240Z,1724
2017-02-12T07:48:03.993Z,1736
2017-02-12T07:49:14.344Z,1760
2017-02-12T07:50:24.700Z,1784
2017-02-12T07:51:35.447Z,1832
2017-02-12T07:52:46.191Z,1880
2017-02-12T07:53:56.131Z,1976
2017-02-12T07:55:06.086Z,2036
2017-02-12T07:56:16.034Z,2084
2017-02-12T07:57:26.437Z,2128
2017-02-12T07:58:36.008Z,2168
2017-02-12T07:59:46.754Z,2192
2017-02-12T08:00:57.491Z,2224
2017-02-12T08:02:07.860Z,2260
2017-02-12T08:03:18.593Z,2308
2017-02-12T08:04:28.962Z,2352
2017-02-12T08:05:39.759Z,2428
2017-02-12T08:06:50.514Z,2532
2017-02-12T08:08:00.481Z,2620
2017-02-12T08:09:11.277Z,2632
2017-02-12T08:10:21.630Z,2616
2017-02-12T08:11:32.366Z,2592
2017-02-12T08:12:42.720Z,2596
2017-02-12T08:13:53.061Z,2600
2017-02-12T08:15:03.026Z,2628
2017-02-12T08:16:12.997Z,2648
2017-02-12T08:17:23.364Z,2616
2017-02-12T08:18:33.324Z,2508
2017-02-12T08:19:43.288Z,2492
2017-02-12T08:20:53.641Z,2568
2017-02-12T08:22:03.995Z,2684
2017-02-12T08:23:14.344Z,2764
2017-02-12T08:24:24.341Z,2800
2017-02-12T08:25:35.107Z,2784
2017-02-12T08:26:45.853Z,2712
2017-02-12T08:27:56.601Z,2636
2017-02-12T08:29:06.558Z,2604
2017-02-12T08:30:17.306Z,2584
2017-02-12T08:31:28.047Z,2564
2017-02-12T08:32:38.419Z,2468
2017-02-12T08:33:48.775Z,2348
2017-02-12T08:34:58.366Z,2284
2017-02-12T08:36:09.116Z,2288
2017-02-12T08:37:18.674Z,2300
2017-02-12T08:38:29.413Z,2308
2017-02-12T08:39:39.769Z,2300
2017-02-12T08:40:50.523Z,2300
2017-02-12T08:42:01.271Z,2260
2017-02-12T08:43:12.018Z,2260
2017-02-12T08:44:22.429Z,2268
2017-02-12T08:45:32.762Z,2304
2017-02-12T08:46:43.098Z,2332
2017-02-12T08:47:53.467Z,2332
2017-02-12T08:49:03.835Z,2344
2017-02-12T08:50:14.643Z,2396
2017-02-12T08:51:25.386Z,2452
2017-02-12T08:52:36.142Z,2468
2017-02-12T08:53:46.487Z,2432
2017-02-12T08:54:57.269Z,2384
2017-02-12T08:56:07.619Z,2364
2017-02-12T08:57:17.193Z,2368
2017-02-12T08:58:27.929Z,2372
2017-02-12T08:59:37.889Z,2408
2017-02-12T09:00:48.664Z,2392
2017-02-12T09:01:58.282Z,2360
2017-02-12T09:03:08.248Z,2328
2017-02-12T09:04:19.001Z,2312
2017-02-12T09:05:28.966Z,2308
2017-02-12T09:06:39.326Z,2356
2017-02-12T09:07:50.124Z,2444
2017-02-12T09:09:00.113Z,2524
2017-02-12T09:10:10.471Z,2608
2017-02-12T09:11:20.815Z,2692
2017-02-12T09:12:31.568Z,2692
2017-02-12T09:13:41.928Z,2648
2017-02-12T09:14:52.285Z,2724
2017-02-12T09:16:02.241Z,2920
2017-02-12T09:17:12.594Z,3080
2017-02-12T09:18:22.940Z,3128
2017-02-12T09:19:32.989Z,3048
2017-02-12T09:20:43.744Z,3004
2017-02-12T09:21:53.696Z,3016
2017-02-12T09:23:04.053Z,3060
2017-02-12T09:24:14.846Z,3112
2017-02-12T09:25:25.211Z,3140
2017-02-12T09:26:35.179Z,3172
2017-02-12T09:27:45.160Z,3076
2017-02-12T09:28:55.509Z,2896
2017-02-12T09:30:05.475Z,2776
2017-02-12T09:31:16.226Z,2688
2017-02-12T09:32:26.590Z,2692
2017-02-12T09:33:36.152Z,2736
2017-02-12T09:34:46.903Z,2836
2017-02-12T09:35:57.294Z,3012
2017-02-12T09:37:08.065Z,3208
2017-02-12T09:38:18.022Z,3320
2017-02-12T09:39:27.976Z,3364
2017-02-12T09:40:38.713Z,3328
2017-02-12T09:41:49.068Z,3260
2017-02-12T09:42:59.851Z,3288
2017-02-12T09:44:10.621Z,3332
2017-02-12T09:45:20.984Z,3360
2017-02-12T09:46:31.726Z,3364
2017-02-12T09:47:42.467Z,3308
2017-02-12T09:48:52.456Z,3272
2017-02-12T09:50:03.210Z,3236
2017-02-12T09:51:13.573Z,3164
2017-02-12T09:52:23.543Z,3096
2017-02-12T09:53:33.918Z,3056
2017-02-12T09:54:44.678Z,3188
2017-02-12T09:55:55.439Z,3368
2017-02-12T09:57:05.400Z,3436
2017-02-12T09:58:15.764Z,3452
2017-02-12T09:59:25.730Z,3408
2017-02-12T10:00:36.562Z,3416
2017-02-12T10:01:46.503Z,3448
2017-02-12T10:02:57.238Z,3468
2017-02-12T10:04:07.599Z,3452
2017-02-12T10:05:17.547Z,3448
2017-02-12T10:06:27.503Z,3456
2017-02-12T10:07:37.910Z,3564
2017-02-12T10:08:48.663Z,3764
2017-02-12T10:09:59.028Z,3852
2017-02-12T10:11:09.380Z,3788
2017-02-12T10:12:19.733Z,3788
2017-02-12T10:13:30.490Z,3892
2017-02-12T10:14:40.848Z,3984
2017-02-12T10:15:50.809Z,4096
2017-02-12T10:17:00.381Z,4144
2017-02-12T10:18:11.131Z,4156
2017-02-12T10:19:21.884Z,4156
2017-02-12T10:20:31.850Z,4128
2017-02-12T10:21:41.821Z,4240
2017-02-12T10:29:13.583Z,5180
2017-02-12T10:30:23.546Z,5280
2017-02-12T10:34:05.537Z,5020
2017-02-12T10:35:16.284Z,4728
2017-02-12T10:36:26.241Z,4616
2017-02-12T10:37:36.987Z,4616
2017-02-12T10:38:47.732Z,4652
2017-02-12T10:39:58.091Z,4596
2017-02-12T10:41:08.452Z,4524
2017-02-12T10:42:19.208Z,4540
2017-02-12T10:43:29.172Z,4580
2017-02-12T10:44:39.521Z,4588
2017-02-12T10:45:49.870Z,4508
2017-02-12T10:47:00.227Z,4496
2017-02-12T10:48:10.979Z,4460
2017-02-12T10:49:21.737Z,4396
2017-02-12T10:50:32.154Z,4356
2017-02-12T10:51:42.903Z,4272
2017-02-12T10:52:53.655Z,4216
2017-02-12T10:54:04.412Z,4220
2017-02-12T10:55:14.369Z,4332
2017-02-12T10:56:25.107Z,4548
2017-02-12T10:57:35.905Z,4740
2017-02-12T10:58:46.257Z,4972
2017-02-12T10:59:56.611Z,5252
2017-02-12T11:01:07.356Z,5468
2017-02-12T11:02:17.705Z,5608
2017-02-12T11:03:28.070Z,5660
2017-02-12T11:04:38.823Z,5636
2017-02-12T11:05:49.165Z,5584
2017-02-12T11:06:59.524Z,5508
2017-02-12T11:08:09.889Z,5600
2017-02-12T11:09:20.244Z,5796
2017-02-12T11:10:30.608Z,5912
2017-02-12T11:11:40.178Z,5988
2017-02-12T11:12:50.934Z,6116
2017-02-12T11:14:01.287Z,6276
2017-02-12T11:15:11.652Z,6568
2017-02-12T11:16:21.999Z,6920
2017-02-12T11:17:32.758Z,6908
2017-02-12T11:18:43.519Z,6764
2017-02-12T11:19:54.261Z,6452
2017-02-12T11:21:04.608Z,6088
2017-02-12T11:22:15.417Z,5764
2017-02-12T11:23:26.163Z,5676
2017-02-12T11:24:36.531Z,5544
2017-02-12T11:25:47.285Z,5384
2017-02-12T11:26:58.033Z,5192
2017-02-12T11:28:08.788Z,5024
2017-02-12T11:29:19.157Z,4908
2017-02-12T11:30:29.915Z,4808
2017-02-12T11:31:40.665Z,4756
2017-02-12T11:32:51.459Z,4828
2017-02-12T11:34:02.202Z,5032
2017-02-12T11:35:12.161Z,5272
2017-02-12T11:36:22.525Z,5380
2017-02-12T11:37:32.884Z,5328
2017-02-12T11:38:43.646Z,5228
2017-02-12T11:39:53.993Z,5224
2017-02-12T11:41:03.972Z,5272
2017-02-12T11:42:14.335Z,5292
2017-02-12T11:43:24.695Z,5260
2017-02-12T11:44:35.499Z,5252
2017-02-12T11:45:45.469Z,5192
2017-02-12T11:46:55.812Z,5080
2017-02-12T11:48:06.571Z,4984
2017-02-12T11:49:16.924Z,4880
2017-02-12T11:50:27.679Z,4732
2017-02-12T11:51:37.636Z,4520
2017-02-12T11:52:47.997Z,4356
2017-02-12T11:53:58.749Z,4208
2017-02-12T11:55:09.511Z,4080
2017-02-12T11:56:19.513Z,3992
2017-02-12T11:57:29.860Z,3960
2017-02-12T11:58:40.247Z,3908
2017-02-12T11:59:50.996Z,3796
2017-02-12T12:01:01.747Z,3740
2017-02-12T12:02:12.102Z,3604
2017-02-12T12:03:22.863Z,3516
2017-02-12T12:04:33.631Z,3516
2017-02-12T12:05:44.383Z,3600
2017-02-12T12:06:54.735Z,3616
2017-02-12T12:08:05.541Z,3600
2017-02-12T12:09:15.912Z,3608
2017-02-12T12:10:26.286Z,3580
2017-02-12T12:11:37.060Z,3532
2017-02-12T12:12:47.809Z,3440
2017-02-12T12:13:58.225Z,3316
2017-02-12T12:15:08.612Z,3264
2017-02-12T12:16:18.978Z,3236
2017-02-12T12:17:29.333Z,3244
2017-02-12T12:18:40.079Z,3268
2017-02-12T12:19:50.051Z,3260
2017-02-12T12:21:00.425Z,3256
2017-02-12T12:22:10.795Z,3204
2017-02-12T12:23:21.562Z,3168
2017-02-12T12:24:31.916Z,3152
2017-02-12T12:25:42.675Z,3208
2017-02-12T12:26:53.034Z,3228
2017-02-12T12:28:02.621Z,3212
2017-02-12T12:29:12.989Z,3248
2017-02-12T12:30:23.348Z,3292
2017-02-12T12:31:34.101Z,3296
2017-02-12T12:32:44.861Z,3260
2017-02-12T12:33:55.628Z,3196
2017-02-12T12:35:06.358Z,3104
2017-02-12T12:36:17.123Z,3084
2017-02-12T12:37:27.949Z,3052
2017-02-12T12:38:37.916Z,3016
2017-02-12T12:39:48.702Z,2900
2017-02-12T12:40:59.080Z,2736
2017-02-12T12:42:09.832Z,2656
2017-02-12T12:43:18.985Z,2616
2017-02-12T12:44:29.335Z,2576
2017-02-12T12:45:39.300Z,2632
2017-02-12T12:46:49.247Z,2692
2017-02-12T12:48:00.007Z,2660
2017-02-12T12:49:10.357Z,2624
2017-02-12T12:50:20.709Z,2624
2017-02-12T12:51:31.055Z,2712
2017-02-12T12:52:41.816Z,2860
2017-02-12T12:53:52.229Z,2972
2017-02-12T12:55:03.035Z,3016
2017-02-12T12:56:13.411Z,2928
2017-02-12T12:57:23.362Z,2824
2017-02-12T12:58:34.105Z,2684
2017-02-12T12:59:43.275Z,2536
2017-02-12T13:00:54.029Z,2408
2017-02-12T13:02:04.782Z,2292
2017-02-12T13:03:15.518Z,2236
2017-02-12T13:04:25.484Z,2248
2017-02-12T13:05:35.840Z,2260
2017-02-12T13:06:46.647Z,2272
2017-02-12T13:07:57.404Z,2292
2017-02-12T13:09:08.166Z,2324
2017-02-12T13:10:18.534Z,2392
2017-02-12T13:11:28.895Z,2496
2017-02-12T13:12:39.705Z,2580
2017-02-12T13:13:49.694Z,2696
2017-02-12T13:15:00.474Z,2788
2017-02-12T13:16:10.846Z,2828
2017-02-12T13:17:21.199Z,2848
2017-02-12T13:18:31.950Z,2892
2017-02-12T13:19:41.912Z,2936
2017-02-12T13:20:52.654Z,2980
2017-02-12T13:22:02.621Z,3024
2017-02-12T13:23:12.583Z,3068
2017-02-12T13:24:22.937Z,3160
2017-02-12T13:25:33.692Z,3184
2017-02-12T13:26:44.042Z,3180
2017-02-12T13:27:54.403Z,3132
2017-02-12T13:29:05.150Z,3088
2017-02-12T13:30:15.906Z,3060
2017-02-12T13:31:26.256Z,3052
2017-02-12T13:32:36.627Z,3044
2017-02-12T13:33:46.609Z,3040
2017-02-12T13:34:57.367Z,3016
2017-02-12T13:36:07.742Z,3028
2017-02-12T13:37:18.504Z,3016
2017-02-12T13:38:29.259Z,3028
2017-02-12T13:39:39.616Z,3044
2017-02-12T13:40:50.372Z,3032
2017-02-12T13:42:00.436Z,3028
2017-02-12T13:43:11.691Z,2988
2017-02-12T13:44:21.662Z,2952
2017-02-12T13:45:32.019Z,2928
2017-02-12T13:46:42.747Z,2912
2017-02-12T13:47:53.483Z,2884
2017-02-12T13:49:04.229Z,2824
2017-02-12T13:50:14.988Z,2752
2017-02-12T13:51:25.351Z,2696
2017-02-12T13:52:36.103Z,2680
2017-02-12T13:53:46.874Z,2648
2017-02-12T13:54:57.640Z,2608
2017-02-12T13:56:08.022Z,2580
2017-02-12T13:57:18.402Z,2580
2017-02-12T13:58:29.156Z,2576
2017-02-12T13:59:39.929Z,2524
2017-02-12T14:00:50.307Z,2464
2017-02-12T14:02:00.705Z,2388
2017-02-12T14:03:11.462Z,2308
2017-02-12T14:04:21.448Z,2248
2017-02-12T14:05:32.195Z,2216
2017-02-12T14:06:42.936Z,2180
2017-02-12T14:07:53.308Z,2144
2017-02-12T14:09:03.667Z,2096
2017-02-12T14:10:14.051Z,2056
2017-02-12T14:11:24.843Z,2000
2017-02-12T14:12:35.205Z,1952
2017-02-12T14:13:45.976Z,1904
2017-02-12T14:14:56.768Z,1840
2017-02-12T14:16:07.523Z,1756
2017-02-12T14:17:17.908Z,1676
2017-02-12T14:18:28.283Z,1624
2017-02-12T14:19:38.638Z,1596
2017-02-12T14:20:49.393Z,1552
2017-02-12T14:22:00.144Z,1512
2017-02-12T14:23:10.951Z,1476
2017-02-12T14:24:21.313Z,1452
2017-02-12T14:25:31.321Z,1428
2017-02-12T14:26:42.086Z,1412
2017-02-12T14:27:52.851Z,1392
2017-02-12T14:29:03.279Z,1372
2017-02-12T14:30:13.726Z,1356
2017-02-12T14:31:24.503Z,1340
2017-02-12T14:32:34.477Z,1328
2017-02-12T14:33:45.266Z,1320
2017-02-12T14:34:55.278Z,1324
2017-02-12T14:36:04.846Z,1352
2017-02-12T14:37:15.216Z,1352
2017-02-12T14:38:26.012Z,1368
2017-02-12T14:39:36.782Z,1344
2017-02-12T14:40:46.759Z,1340
2017-02-12T14:41:56.357Z,1336
2017-02-12T14:43:06.773Z,1348
2017-02-12T14:44:17.155Z,1340
2017-02-12T14:45:27.516Z,1340
2017-02-12T14:46:38.371Z,1312
2017-02-12T14:47:48.361Z,1288
2017-02-12T14:48:59.159Z,1248
2017-02-12T14:50:09.919Z,1216
2017-02-12T14:51:20.335Z,1184
2017-02-12T14:52:31.122Z,1148
2017-02-12T14:53:41.883Z,1124
2017-02-12T14:54:52.236Z,1108
2017-02-12T14:56:02.605Z,1100
2017-02-12T14:57:12.596Z,1064
2017-02-12T14:58:22.622Z,1016
2017-02-12T14:59:33.419Z,968
2017-02-12T15:00:44.172Z,952
2017-02-12T15:01:54.530Z,928
2017-02-12T15:03:05.287Z,888
2017-02-12T15:04:15.696Z,860
2017-02-12T15:05:25.651Z,840
2017-02-12T15:06:35.642Z,824
2017-02-12T15:07:46.426Z,792
2017-02-12T15:08:56.794Z,772
2017-02-12T15:10:07.557Z,760
2017-02-12T15:11:18.379Z,736
2017-02-12T15:12:28.803Z,736
2017-02-12T15:13:39.186Z,744
2017-02-12T15:14:49.567Z,732
2017-02-12T15:16:00.584Z,720
2017-02-12T15:17:09.782Z,708
2017-02-12T15:18:20.194Z,692
2017-02-12T15:19:30.559Z,676
2017-02-12T15:20:41.370Z,672
2017-02-12T15:21:51.771Z,644
2017-02-12T15:23:02.153Z,628
2017-02-12T15:24:12.111Z,616
2017-02-12T15:25:21.297Z,584
2017-02-12T15:26:32.045Z,560
2017-02-12T15:27:42.838Z,556
2017-02-12T15:28:53.202Z,552
2017-02-12T15:30:03.986Z,548
2017-02-12T15:31:14.361Z,524
2017-02-12T15:32:25.125Z,504
2017-02-12T15:33:35.078Z,484
2017-02-12T15:34:45.827Z,476
2017-02-12T15:35:56.223Z,472
2017-02-12T15:37:07.010Z,464
2017-02-12T15:38:16.995Z,436
2017-02-12T15:39:27.450Z,420
2017-02-12T15:40:37.877Z,408
2017-02-12T15:41:48.241Z,392
2017-02-12T15:42:58.629Z,372
2017-02-12T15:44:09.412Z,352
2017-02-12T15:45:19.775Z,324
2017-02-12T15:46:30.546Z,304
2017-02-12T15:47:40.500Z,284
2017-02-12T15:48:50.469Z,264
2017-02-12T15:50:00.832Z,248
2017-02-12T15:51:11.628Z,232
2017-02-12T15:52:22.415Z,216
2017-02-12T15:53:33.151Z,204
2017-02-12T15:54:43.918Z,184
2017-02-12T15:55:54.666Z,172
2017-02-12T15:57:05.422Z,160
2017-02-12T15:58:16.161Z,148
2017-02-12T15:59:26.912Z,136
2017-02-12T16:00:36.906Z,124
2017-02-12T16:01:47.275Z,112
2017-02-12T16:02:57.242Z,100
2017-02-12T16:04:07.618Z,92
2017-02-12T16:05:18.378Z,80
2017-02-12T16:06:28.761Z,72
2017-02-12T16:07:39.535Z,68
2017-02-12T16:08:50.303Z,60
2017-02-12T16:10:01.073Z,52
2017-02-12T16:11:11.472Z,48
2017-02-12T16:12:21.037Z,40
2017-02-12T16:13:31.814Z,36
2017-02-12T16:14:42.254Z,32
2017-02-12T16:15:52.612Z,28
2017-02-12T16:17:03.372Z,24
2017-02-12T16:18:14.147Z,20
2017-02-12T16:19:24.541Z,16
2017-02-12T16:20:34.532Z,16
2017-02-12T16:21:45.285Z,12
2017-02-12T16:22:55.640Z,8
2017-02-12T16:24:06.402Z,8
2017-02-12T16:25:17.171Z,8
2017-02-12T16:26:27.554Z,8
2017-02-12T16:27:38.304Z,4
2017-02-12T16:28:48.662Z,4
2017-02-12T16:29:59.424Z,4
2017-02-12T16:31:10.196Z,4
2017-02-12T16:32:20.174Z,4
2017-02-12T16:33:30.531Z,0
2017-02-12T16:34:40.890Z,0
2017-02-12T16:35:50.865Z,4
2017-02-12T16:37:01.237Z,4
2017-02-12T16:38:12.010Z,4
2017-02-12T16:39:22.414Z,4
2017-02-12T16:40:32.779Z,0
2017-02-12T16:41:43.139Z,0
2017-02-12T16:42:53.512Z,0
2017-02-12T16:44:04.333Z,0
2017-02-12T16:45:14.939Z,0
2017-02-12T16:46:25.727Z,0
2017-02-12T16:47:35.289Z,0
2017-02-12T16:48:44.857Z,0
2017-02-12T16:49:55.267Z,0
2017-02-12T16:51:05.619Z,0
2017-02-12T16:52:15.972Z,0
2017-02-12T16:53:26.725Z,0
2017-02-12T16:54:37.088Z,0
2017-02-12T16:55:47.838Z,0
2017-02-12T16:56:58.607Z,0
2017-02-12T16:58:08.965Z,0
2017-02-12T16:59:19.720Z,0
2017-02-12T17:00:30.474Z,0
2017-02-12T17:01:40.835Z,0